Time;durP1;ratioP1;P1;durP2;ratioP2;P2;SDS_P1;SDS_P2;PMS_P1;PMS_P2;Temp;Humidity;BMP_temperature;BMP_pressure;BME280_temperature;BME280_humidity;BME280_pressure;Samples;Min_cycle;Max_cycle;Signal;HPM_P1;HPM_P2
2021/05/28 00:02:03;;;;;;;;;;;;;;;19.33;73.19;100070.39;1734439;80;21084;-66
2021/05/28 00:04:30;;;;;;;;;;;;;;;19.34;73.26;100061.95;1759686;80;20186;-64
2021/05/28 00:06:57;;;;;;;;;;;;;;;19.36;73.29;100067.11;1771482;79;20181;-64
2021/05/28 00:09:24;;;;;;;;;;;;;;;19.37;73.32;100060.58;1756360;80;20153;-65
2021/05/28 00:11:52;;;;;;;;;;;;;;;19.37;73.32;100060.02;1720880;80;20253;-66
2021/05/28 00:14:19;;;;;;;;;;;;;;;19.39;73.31;100055.66;1759343;80;21681;-65
2021/05/28 00:16:46;;;;;;;;;;;;;;;19.39;73.18;100057.02;1746358;80;20181;-64
2021/05/28 00:19:13;;;;;;;;;;;;;;;19.37;73.16;100049.71;1760989;80;20170;-65
2021/05/28 00:21:39;;;;;;;;;;;;;;;19.32;73.17;100054.65;1759712;80;20173;-65
2021/05/28 00:24:07;;;;;;;;;;;;;;;19.25;73.28;100049.52;1756383;80;20591;-65
2021/05/28 00:26:33;;;;;;;;;;;;;;;19.25;73.42;100056.31;1760804;80;20699;-64
2021/05/28 00:29:00;;;;;;;;;;;;;;;19.24;73.46;100053.35;1736535;80;20175;-65
2021/05/28 00:31:28;;;;;;;;;;;;;;;19.25;73.52;100056.88;1760091;80;20145;-64
2021/05/28 00:33:55;;;;;;;;;;;;;;;19.25;73.59;100063.11;1759015;80;20562;-65
2021/05/28 00:36:21;;;;;;;;;;;;;;;19.26;73.65;100059.86;1758953;80;20127;-64
2021/05/28 00:38:48;;;;;;;;;;;;;;;19.24;73.67;100063.39;1759656;80;22240;-64
2021/05/28 00:41:16;;;;;;;;;;;;;;;19.24;73.70;100056.07;1759766;80;20230;-65
2021/05/28 00:43:43;;;;;;;;;;;;;;;19.26;73.67;100055.79;1758984;80;20193;-65
2021/05/28 00:46:10;;;;;;;;;;;;;;;19.26;73.52;100049.80;1758132;80;20178;-64
2021/05/28 00:48:36;;;;;;;;;;;;;;;19.21;73.57;100044.94;1758915;80;20580;-64
2021/05/28 00:51:04;;;;;;;;;;;;;;;19.18;73.72;100041.44;1759680;80;21047;-64
2021/05/28 00:53:31;;;;;;;;;;;;;;;19.20;73.76;100042.78;1736328;80;20174;-65
2021/05/28 00:55:58;;;;;;;;;;;;;;;19.25;73.80;100040.57;1722979;82;20142;-65
2021/05/28 00:58:25;;;;;;;;;;;;;;;19.27;73.74;100043.80;1733224;82;20559;-65
2021/05/28 01:00:51;;;;;;;;;;;;;;;19.29;73.74;100036.72;1726520;82;20142;-64
2021/05/28 01:03:19;;;;;;;;;;;;;;;19.29;73.63;100034.84;1730332;82;21092;-63
2021/05/28 01:05:46;;;;;;;;;;;;;;;19.27;73.68;100034.30;1731229;82;20183;-65
2021/05/28 01:08:13;;;;;;;;;;;;;;;19.24;73.68;100037.05;1727127;82;20176;-65
2021/05/28 01:10:42;;;;;;;;;;;;;;;19.24;73.71;100037.05;1734710;82;20517;-64
2021/05/28 01:13:09;;;;;;;;;;;;;;;19.23;73.72;100031.34;1714136;82;20195;-65
2021/05/28 01:15:38;;;;;;;;;;;;;;;19.23;73.76;100032.70;1759252;80;21040;-65
2021/05/28 01:18:07;;;;;;;;;;;;;;;19.23;73.83;100027.27;1761379;80;20178;-64
2021/05/28 01:20:34;;;;;;;;;;;;;;;19.23;73.85;100026.47;1759819;80;20161;-66
2021/05/28 01:23:01;;;;;;;;;;;;;;;19.23;73.89;100019.67;1757603;80;20229;-64
2021/05/28 01:25:30;;;;;;;;;;;;;;;19.20;73.93;100010.18;1760151;80;20507;-64
2021/05/28 01:27:57;;;;;;;;;;;;;;;19.18;74.04;100008.28;1761947;80;21118;-63
2021/05/28 01:30:26;;;;;;;;;;;;;;;19.19;74.12;100012.63;1761753;80;20178;-64
2021/05/28 01:32:53;;;;;;;;;;;;;;;19.19;74.04;100021.34;1760396;80;20171;-65
2021/05/28 01:35:20;;;;;;;;;;;;;;;19.15;74.10;100014.28;1760817;80;20908;-65
2021/05/28 01:37:47;;;;;;;;;;;;;;;19.12;74.17;100012.70;1760096;80;20181;-65
2021/05/28 01:40:14;;;;;;;;;;;;;;;19.04;74.22;100012.20;1739719;80;21090;-65
2021/05/28 01:42:41;;;;;;;;;;;;;;;18.99;74.37;100004.11;1759129;80;20220;-64
2021/05/28 01:45:09;;;;;;;;;;;;;;;18.94;74.53;100016.34;1761802;80;20193;-64
2021/05/28 01:47:36;;;;;;;;;;;;;;;18.84;74.78;100017.75;1760128;80;20165;-64
2021/05/28 01:50:04;;;;;;;;;;;;;;;18.77;75.07;100015.89;1762247;80;20163;-64
2021/05/28 01:52:32;;;;;;;;;;;;;;;18.76;75.29;100011.55;1757066;80;20177;-64
2021/05/28 01:54:59;;;;;;;;;;;;;;;18.81;75.39;100012.33;1761907;80;20204;-64
2021/05/28 01:57:25;;;;;;;;;;;;;;;18.87;75.38;100011.25;1758024;80;20170;-67
2021/05/28 01:59:52;;;;;;;;;;;;;;;18.94;75.29;100007.41;1736604;80;20228;-65
2021/05/28 02:02:19;;;;;;;;;;;;;;;18.98;75.18;100009.27;1758579;80;20187;-64
2021/05/28 02:04:46;;;;;;;;;;;;;;;19.01;74.99;100006.54;1761564;80;21041;-64
2021/05/28 02:07:13;;;;;;;;;;;;;;;19.03;74.83;100004.34;1758612;79;20192;-64
2021/05/28 02:09:40;;;;;;;;;;;;;;;19.02;74.80;99998.63;1758733;80;20123;-63
2021/05/28 02:12:07;;;;;;;;;;;;;;;19.00;74.85;100000.27;1757343;80;20178;-64
2021/05/28 02:14:35;;;;;;;;;;;;;;;19.02;74.88;100000.82;1759786;80;20225;-65
2021/05/28 02:17:02;;;;;;;;;;;;;;;19.04;74.92;99998.63;1762836;80;20522;-65
2021/05/28 02:19:30;;;;;;;;;;;;;;;19.07;74.95;100002.69;1735925;80;20227;-65
2021/05/28 02:21:56;;;;;;;;;;;;;;;19.08;74.94;99999.68;1759579;80;20202;-65
2021/05/28 02:24:23;;;;;;;;;;;;;;;19.10;74.98;99991.25;1759550;80;20170;-65
2021/05/28 02:26:51;;;;;;;;;;;;;;;19.08;75.09;99996.16;1761028;80;20215;-65
2021/05/28 02:29:17;;;;;;;;;;;;;;;19.02;75.18;99994.55;1758141;80;21046;-65
2021/05/28 02:31:44;;;;;;;;;;;;;;;19.02;75.29;99991.31;1762208;80;20165;-65
2021/05/28 02:34:11;;;;;;;;;;;;;;;19.03;75.31;99988.84;1735209;82;20566;-65
2021/05/28 02:36:38;;;;;;;;;;;;;;;19.06;75.43;99992.91;1753538;80;20153;-65
2021/05/28 02:39:06;;;;;;;;;;;;;;;19.06;75.37;99994.27;1762692;80;20181;-64
2021/05/28 02:41:33;;;;;;;;;;;;;;;19.07;75.39;99999.41;1757256;80;21030;-64
2021/05/28 02:44:00;;;;;;;;;;;;;;;19.11;75.33;99996.13;1757908;80;20186;-65
2021/05/28 02:46:29;;;;;;;;;;;;;;;19.16;75.23;100000.17;1759128;80;20157;-66
2021/05/28 02:48:57;;;;;;;;;;;;;;;19.20;75.09;99996.59;1759035;80;20233;-64
2021/05/28 02:51:23;;;;;;;;;;;;;;;19.26;74.89;99996.81;1735926;80;20187;-65
2021/05/28 02:53:50;;;;;;;;;;;;;;;19.33;74.75;100001.09;1727753;82;21078;-66
2021/05/28 02:56:18;;;;;;;;;;;;;;;19.38;74.38;100001.87;1726720;82;20143;-65
2021/05/28 02:58:46;;;;;;;;;;;;;;;19.37;74.18;100002.16;1726013;82;20600;-65
2021/05/28 03:01:13;;;;;;;;;;;;;;;19.34;74.12;100000.02;1727934;82;20426;-64
2021/05/28 03:03:39;;;;;;;;;;;;;;;19.31;74.21;99996.51;1727263;82;20170;-64
2021/05/28 03:06:07;;;;;;;;;;;;;;;19.35;74.25;100003.00;1725072;81;21879;-65
2021/05/28 03:08:33;;;;;;;;;;;;;;;19.40;74.15;100003.77;1727838;82;20693;-64
2021/05/28 03:11:02;;;;;;;;;;;;;;;19.50;74.04;100001.48;1729934;81;20606;-65
2021/05/28 03:13:28;;;;;;;;;;;;;;;19.60;73.77;99996.51;1724292;82;20208;-65
2021/05/28 03:15:57;;;;;;;;;;;;;;;19.70;73.35;100001.01;1724753;81;20203;-65
2021/05/28 03:18:26;;;;;;;;;;;;;;;19.71;72.99;99995.31;1725003;82;21743;-64
2021/05/28 03:21:19;;;;;;;;;;;;;;;19.72;73.05;99998.83;1714101;82;20209;-64
2021/05/28 03:23:27;;;;;;;;;;;;;;;19.82;72.87;99993.84;1724207;82;20153;-64
2021/05/28 03:25:53;;;;;;;;;;;;;;;19.93;72.43;100000.80;1732628;82;20166;-66
2021/05/28 03:28:20;;;;;;;;;;;;;;;20.02;72.01;99998.25;1729639;82;20252;-65
2021/05/28 03:30:47;;;;;;;;;;;;;;;20.11;71.74;100001.94;1726009;82;21679;-64
2021/05/28 03:33:14;;;;;;;;;;;;;;;20.21;71.52;99995.02;1725518;82;20179;-65
2021/05/28 03:35:41;;;;;;;;;;;;;;;20.33;71.28;99995.95;1724191;81;20163;-65
2021/05/28 03:38:07;;;;;;;;;;;;;;;20.46;70.98;99997.98;1706351;82;20150;-65
2021/05/28 03:40:34;;;;;;;;;;;;;;;20.59;70.62;99999.70;1728837;82;20164;-64
2021/05/28 03:43:01;;;;;;;;;;;;;;;20.73;70.21;99995.70;1732853;82;21664;-65
2021/05/28 03:45:28;;;;;;;;;;;;;;;20.83;69.77;100003.19;1731641;82;20181;-65
2021/05/28 03:47:55;;;;;;;;;;;;;;;21.03;69.32;100006.70;1736290;82;20163;-65
2021/05/28 03:50:21;;;;;;;;;;;;;;;21.55;68.72;100003.14;1726288;82;20580;-64
2021/05/28 03:52:48;;;;;;;;;;;;;;;22.35;67.20;100001.86;1726167;82;20597;-65
2021/05/28 03:55:15;;;;;;;;;;;;;;;23.29;64.91;100004.64;1753409;80;21102;-65
2021/05/28 03:57:41;;;;;;;;;;;;;;;24.22;62.39;100001.59;1754860;80;20591;-66
2021/05/28 04:00:10;;;;;;;;;;;;;;;25.13;59.50;99999.08;1754107;80;20169;-67
2021/05/28 04:02:39;;;;;;;;;;;;;;;25.85;56.56;99994.71;1767865;80;20163;-66
2021/05/28 04:05:08;;;;;;;;;;;;;;;26.41;54.21;99988.25;1709597;82;20186;-65
2021/05/28 04:07:34;;;;;;;;;;;;;;;26.71;52.25;99993.16;1745249;80;21073;-66
2021/05/28 04:10:01;;;;;;;;;;;;;;;26.81;52.31;99998.00;1743526;81;20165;-65
2021/05/28 04:12:28;;;;;;;;;;;;;;;26.82;52.17;99999.63;1744697;81;20564;-66
2021/05/28 04:14:55;;;;;;;;;;;;;;;26.72;51.98;99997.52;1744670;81;20129;-66
2021/05/28 04:17:22;;;;;;;;;;;;;;;26.84;51.68;99995.41;1707783;81;20147;-65
2021/05/28 04:19:49;;;;;;;;;;;;;;;27.30;51.05;99993.24;1743713;81;21101;-67
2021/05/28 04:22:16;;;;;;;;;;;;;;;27.92;49.90;99990.83;1746336;81;20146;-67
2021/05/28 04:24:43;;;;;;;;;;;;;;;28.61;48.38;99993.77;1743547;81;20131;-66
2021/05/28 04:27:10;;;;;;;;;;;;;;;29.30;46.84;99987.39;1743119;81;20158;-66
2021/05/28 04:29:38;;;;;;;;;;;;;;;29.94;45.37;99987.44;1743057;81;20801;-67
2021/05/28 04:32:05;;;;;;;;;;;;;;;30.51;43.78;99988.73;1742765;81;21088;-66
2021/05/28 04:34:33;;;;;;;;;;;;;;;31.00;42.91;99981.83;1749325;81;20532;-67
2021/05/28 04:37:02;;;;;;;;;;;;;;;31.55;41.42;99976.09;1744455;81;20165;-67
2021/05/28 04:39:28;;;;;;;;;;;;;;;31.89;40.49;99979.03;1741207;81;20212;-66
2021/05/28 04:41:55;;;;;;;;;;;;;;;32.04;39.87;99977.84;1706236;81;20153;-66
2021/05/28 04:44:23;;;;;;;;;;;;;;;32.13;38.67;99973.66;1743899;81;21106;-67
2021/05/28 04:46:50;;;;;;;;;;;;;;;32.30;38.64;99977.05;1743709;81;20174;-66
2021/05/28 04:49:17;;;;;;;;;;;;;;;32.55;38.02;99979.36;1744463;81;20174;-65
2021/05/28 04:51:43;;;;;;;;;;;;;;;32.62;37.26;99976.08;1745146;81;20183;-66
2021/05/28 04:54:10;;;;;;;;;;;;;;;32.27;37.82;99977.23;1747688;81;20574;-65
2021/05/28 04:56:37;;;;;;;;;;;;;;;31.68;38.49;99971.77;1755368;80;21122;-66
2021/05/28 04:59:04;;;;;;;;;;;;;;;30.84;39.48;99972.80;1759111;80;20561;-67
2021/05/28 05:01:31;;;;;;;;;;;;;;;30.07;40.92;99972.34;1757255;80;20217;-65
2021/05/28 05:03:57;;;;;;;;;;;;;;;29.63;42.72;99977.98;1762167;80;20416;-66
2021/05/28 05:06:24;;;;;;;;;;;;;;;29.61;43.18;99976.96;1758153;79;20318;-66
2021/05/28 05:08:51;;;;;;;;;;;;;;;29.98;43.00;99982.80;1758007;80;21108;-66
2021/05/28 05:11:18;;;;;;;;;;;;;;;30.51;40.97;99979.06;1758459;80;20186;-66
2021/05/28 05:13:45;;;;;;;;;;;;;;;30.75;40.73;99976.57;1760960;80;20159;-67
2021/05/28 05:16:11;;;;;;;;;;;;;;;31.03;39.98;99978.33;1760677;80;20189;-66
2021/05/28 05:18:39;;;;;;;;;;;;;;;31.47;38.90;99979.91;1755896;80;20157;-67
2021/05/28 05:21:07;;;;;;;;;;;;;;;31.83;37.63;99979.70;1762906;80;20197;-66
2021/05/28 05:23:34;;;;;;;;;;;;;;;32.08;37.76;99978.70;1758476;80;20197;-66
2021/05/28 05:26:00;;;;;;;;;;;;;;;32.48;36.90;99977.30;1762813;80;20237;-67
2021/05/28 05:28:27;;;;;;;;;;;;;;;32.90;36.45;99979.00;1760931;80;20170;-67
2021/05/28 05:30:54;;;;;;;;;;;;;;;33.29;35.70;99985.59;1757468;80;20165;-67
2021/05/28 05:33:21;;;;;;;;;;;;;;;33.57;35.72;99980.08;1757508;80;21083;-66
2021/05/28 05:35:47;;;;;;;;;;;;;;;33.75;34.36;99969.73;1761443;80;20159;-68
2021/05/28 05:38:18;;;;;;;;;;;;;;;33.60;35.04;99974.33;1758856;80;20146;-67
2021/05/28 05:40:42;;;;;;;;;;;;;;;33.51;34.07;99971.30;1758098;80;20179;-69
2021/05/28 05:43:09;;;;;;;;;;;;;;;33.30;34.47;99971.11;1734447;81;20171;-66
2021/05/28 05:45:36;;;;;;;;;;;;;;;33.15;35.58;99971.53;1756104;80;21821;-67
2021/05/28 05:48:04;;;;;;;;;;;;;;;33.38;34.96;99972.78;1761443;80;20553;-67
2021/05/28 05:50:31;;;;;;;;;;;;;;;33.69;35.09;99969.26;1763121;80;20548;-67
2021/05/28 05:52:57;;;;;;;;;;;;;;;33.98;34.79;99970.86;1761815;80;20132;-66
2021/05/28 05:55:24;;;;;;;;;;;;;;;34.26;34.33;99976.38;1756514;80;20201;-66
2021/05/28 05:57:51;;;;;;;;;;;;;;;34.44;34.79;99975.11;1759374;80;21096;-67
2021/05/28 06:00:19;;;;;;;;;;;;;;;34.56;34.02;99970.60;1763514;80;20181;-66
2021/05/28 06:02:45;;;;;;;;;;;;;;;34.43;33.12;99974.31;1760360;80;20225;-66
2021/05/28 06:05:13;;;;;;;;;;;;;;;34.01;33.13;99972.86;1758822;80;20520;-67
2021/05/28 06:07:42;;;;;;;;;;;;;;;33.44;34.58;99969.84;1758196;80;20258;-66
2021/05/28 06:10:11;;;;;;;;;;;;;;;32.97;35.01;99971.36;1761543;80;20177;-66
2021/05/28 06:12:38;;;;;;;;;;;;;;;32.48;35.48;99966.22;1760471;80;20531;-66
2021/05/28 06:15:05;;;;;;;;;;;;;;;32.18;35.64;99964.22;1759042;80;20189;-67
2021/05/28 06:17:32;;;;;;;;;;;;;;;31.86;36.55;99972.03;1762524;80;20167;-66
2021/05/28 06:19:59;;;;;;;;;;;;;;;31.59;37.08;99965.09;1759576;80;20259;-66
2021/05/28 06:22:26;;;;;;;;;;;;;;;31.44;37.61;99957.90;1731195;80;21115;-66
2021/05/28 06:24:52;;;;;;;;;;;;;;;31.43;37.55;99954.94;1755995;80;20635;-66
2021/05/28 06:27:19;;;;;;;;;;;;;;;31.38;36.09;99960.77;1758738;80;20213;-65
2021/05/28 06:29:46;;;;;;;;;;;;;;;31.09;34.85;99959.45;1759242;80;20233;-65
2021/05/28 06:32:12;;;;;;;;;;;;;;;30.50;35.53;99960.06;1758421;80;20233;-66
2021/05/28 06:34:39;;;;;;;;;;;;;;;29.83;36.34;99956.78;1748147;80;21031;-66
2021/05/28 06:37:06;;;;;;;;;;;;;;;29.23;38.73;99956.88;1753076;80;20183;-66
2021/05/28 06:39:32;;;;;;;;;;;;;;;28.96;39.71;99959.27;1759222;80;20545;-65
2021/05/28 06:41:59;;;;;;;;;;;;;;;28.73;40.05;99963.19;1762367;80;20153;-66
2021/05/28 06:44:26;;;;;;;;;;;;;;;28.40;41.01;99960.84;1756425;80;20544;-65
2021/05/28 06:46:53;;;;;;;;;;;;;;;28.18;41.82;99963.54;1757883;80;21695;-66
2021/05/28 06:49:20;;;;;;;;;;;;;;;28.01;41.38;99959.07;1760194;80;20590;-66
2021/05/28 06:51:47;;;;;;;;;;;;;;;27.96;42.57;99957.33;1757632;80;20203;-65
2021/05/28 06:54:14;;;;;;;;;;;;;;;28.07;41.36;99960.44;1762816;80;20555;-66
2021/05/28 06:56:42;;;;;;;;;;;;;;;28.03;41.56;99954.59;1759322;80;20546;-65
2021/05/28 06:59:10;;;;;;;;;;;;;;;27.98;41.92;99950.71;1758592;80;21013;-66
2021/05/28 07:01:38;;;;;;;;;;;;;;;28.01;41.64;99952.77;1758436;80;20191;-65
2021/05/28 07:04:06;;;;;;;;;;;;;;;28.08;42.06;99950.23;1757799;80;20607;-66
2021/05/28 07:06:32;;;;;;;;;;;;;;;28.17;42.72;99955.03;1757224;79;20538;-68
2021/05/28 07:08:59;;;;;;;;;;;;;;;28.33;42.88;99949.61;1757877;80;20181;-66
2021/05/28 07:11:26;;;;;;;;;;;;;;;28.57;42.47;99947.92;1731514;80;21025;-66
2021/05/28 07:13:53;;;;;;;;;;;;;;;28.74;41.32;99953.73;1761506;80;20155;-66
2021/05/28 07:16:20;;;;;;;;;;;;;;;28.83;41.50;99947.52;1759514;80;20209;-65
2021/05/28 07:18:48;;;;;;;;;;;;;;;28.94;41.64;99940.31;1758473;80;20579;-66
2021/05/28 07:21:15;;;;;;;;;;;;;;;29.02;40.13;99939.95;1756547;80;20567;-66
2021/05/28 07:23:42;;;;;;;;;;;;;;;29.00;39.23;99940.30;1758559;80;21130;-67
2021/05/28 07:26:08;;;;;;;;;;;;;;;28.93;40.04;99938.73;1760152;80;20231;-66
2021/05/28 07:28:35;;;;;;;;;;;;;;;28.95;40.60;99937.00;1759361;80;20163;-67
2021/05/28 07:31:04;;;;;;;;;;;;;;;29.03;38.32;99935.22;1759029;80;20134;-66
2021/05/28 07:33:31;;;;;;;;;;;;;;;28.83;37.11;99930.97;1759323;80;20158;-66
2021/05/28 07:35:58;;;;;;;;;;;;;;;28.60;37.31;99939.78;1736478;80;21087;-66
2021/05/28 07:38:24;;;;;;;;;;;;;;;28.51;39.50;99934.97;1733861;80;20213;-66
2021/05/28 07:40:51;;;;;;;;;;;;;;;28.57;39.27;99939.07;1760210;80;20147;-65
2021/05/28 07:43:18;;;;;;;;;;;;;;;28.65;37.63;99940.92;1757149;80;20181;-66
2021/05/28 07:45:50;;;;;;;;;;;;;;;28.60;38.47;99938.95;1758785;80;20146;-66
2021/05/28 07:48:14;;;;;;;;;;;;;;;28.58;38.66;99933.00;1758364;80;21094;-66
2021/05/28 07:50:45;;;;;;;;;;;;;;;28.58;39.71;99933.80;1759367;80;20171;-67
2021/05/28 07:53:13;;;;;;;;;;;;;;;28.60;38.18;99933.44;1761602;80;20197;-65
2021/05/28 07:55:40;;;;;;;;;;;;;;;28.48;38.56;99926.02;1753912;80;20193;-66
2021/05/28 07:58:07;;;;;;;;;;;;;;;28.44;37.75;99927.28;1742858;81;20560;-66
2021/05/28 08:00:33;;;;;;;;;;;;;;;28.21;37.76;99929.78;1716965;81;21132;-66
2021/05/28 08:03:01;;;;;;;;;;;;;;;27.86;38.16;99928.88;1746492;81;20145;-65
2021/05/28 08:05:28;;;;;;;;;;;;;;;27.73;38.63;99928.08;1745297;81;20163;-66
2021/05/28 08:07:55;;;;;;;;;;;;;;;27.71;39.22;99929.56;1746222;80;20151;-65
2021/05/28 08:10:24;;;;;;;;;;;;;;;27.67;38.36;99921.78;1722974;81;20238;-67
2021/05/28 08:12:50;;;;;;;;;;;;;;;27.47;37.73;99929.00;1744640;81;21721;-67
2021/05/28 08:15:19;;;;;;;;;;;;;;;27.22;39.14;99917.92;1744406;81;20177;-67
2021/05/28 08:17:46;;;;;;;;;;;;;;;27.21;39.85;99919.09;1743972;81;20210;-66
2021/05/28 08:20:15;;;;;;;;;;;;;;;27.36;40.88;99919.02;1744961;80;20145;-65
2021/05/28 08:22:41;;;;;;;;;;;;;;;27.55;39.91;99917.09;1746272;81;20151;-65
2021/05/28 08:25:09;;;;;;;;;;;;;;;27.64;39.44;99913.64;1712573;81;21100;-67
2021/05/28 08:27:36;;;;;;;;;;;;;;;27.71;38.92;99918.00;1745208;81;20143;-67
2021/05/28 08:30:04;;;;;;;;;;;;;;;27.76;38.93;99914.99;1721525;81;20552;-67
2021/05/28 08:32:31;;;;;;;;;;;;;;;27.83;39.40;99910.85;1742428;81;20194;-67
2021/05/28 08:34:57;;;;;;;;;;;;;;;27.80;37.28;99914.54;1747406;81;20151;-65
2021/05/28 08:37:25;;;;;;;;;;;;;;;27.67;37.52;99912.16;1743583;81;21188;-66
2021/05/28 08:39:52;;;;;;;;;;;;;;;27.58;37.62;99906.77;1725395;81;20185;-67
2021/05/28 08:42:20;;;;;;;;;;;;;;;27.54;37.63;99900.33;1721186;81;20165;-66
2021/05/28 08:44:48;;;;;;;;;;;;;;;27.53;37.81;99902.30;1745208;81;20167;-67
2021/05/28 08:47:18;;;;;;;;;;;;;;;27.52;38.15;99899.89;1744373;81;20179;-66
2021/05/28 08:49:48;;;;;;;;;;;;;;;27.53;38.12;99896.79;1743709;81;21092;-66
2021/05/28 08:52:15;;;;;;;;;;;;;;;27.55;37.88;99887.60;1746001;81;20178;-66
2021/05/28 08:54:42;;;;;;;;;;;;;;;27.61;37.91;99887.59;1714960;80;20525;-66
2021/05/28 08:57:10;;;;;;;;;;;;;;;27.69;37.37;99884.48;1741840;81;20153;-67
2021/05/28 08:59:37;;;;;;;;;;;;;;;27.65;37.18;99887.72;1746300;81;20231;-67
2021/05/28 09:02:03;;;;;;;;;;;;;;;27.58;36.75;99881.98;1744428;81;21091;-67
2021/05/28 09:04:30;;;;;;;;;;;;;;;27.58;37.38;99879.23;1719397;81;20177;-66
2021/05/28 09:06:57;;;;;;;;;;;;;;;27.53;36.94;99877.52;1744790;81;20189;-65
2021/05/28 09:09:24;;;;;;;;;;;;;;;27.49;37.79;99873.84;1742955;81;20157;-66
2021/05/28 09:12:00;;;;;;;;;;;;;;;27.51;38.00;99872.92;1721745;81;20161;-65
2021/05/28 09:14:35;;;;;;;;;;;;;;;27.56;39.15;99869.13;1745750;81;21139;-66
2021/05/28 09:17:03;;;;;;;;;;;;;;;27.62;37.30;99869.15;1743733;81;20548;-66
2021/05/28 09:19:30;;;;;;;;;;;;;;;27.57;37.04;99871.53;1744099;81;20184;-66
2021/05/28 09:21:58;;;;;;;;;;;;;;;27.52;37.73;99869.61;1744460;81;20157;-66
2021/05/28 09:24:35;;;;;;;;;;;;;;;27.52;37.97;99870.98;1741427;81;20547;-66
2021/05/28 09:27:26;;;;;;;;;;;;;;;27.48;38.39;99863.98;1741518;81;21075;-66
2021/05/28 09:30:17;;;;;;;;;;;;;;;27.44;38.74;99867.19;1743339;81;20187;-66
2021/05/28 09:32:46;;;;;;;;;;;;;;;27.36;39.60;99863.99;1746123;81;20575;-65
2021/05/28 09:35:15;;;;;;;;;;;;;;;27.38;40.29;99860.31;1742855;81;20223;-66
2021/05/28 09:37:48;;;;;;;;;;;;;;;27.43;39.49;99859.52;1743531;81;20328;-65
2021/05/28 09:40:19;;;;;;;;;;;;;;;27.49;39.40;99856.52;1741341;81;21769;-66
2021/05/28 09:43:02;;;;;;;;;;;;;;;27.50;39.34;99855.38;1747539;81;20175;-65
2021/05/28 09:45:35;;;;;;;;;;;;;;;27.47;39.52;99850.56;1744252;81;20179;-67
2021/05/28 09:48:03;;;;;;;;;;;;;;;27.52;40.67;99846.22;1744837;81;20146;-67
2021/05/28 09:50:34;;;;;;;;;;;;;;;27.61;41.47;99836.67;1709499;81;20285;-66
2021/05/28 09:53:04;;;;;;;;;;;;;;;27.72;40.69;99837.58;1748189;81;21698;-65
2021/05/28 09:55:32;;;;;;;;;;;;;;;27.80;39.57;99840.78;1741730;81;20238;-66
2021/05/28 09:57:59;;;;;;;;;;;;;;;27.82;40.24;99835.72;1727654;82;20239;-66
2021/05/28 10:00:29;;;;;;;;;;;;;;;27.80;38.76;99829.77;1669116;84;20212;-66
2021/05/28 10:03:22;;;;;;;;;;;;;;;27.70;39.19;99826.12;1679389;83;20188;-66
2021/05/28 10:05:54;;;;;;;;;;;;;;;27.64;39.31;99822.80;1760803;80;21102;-67
2021/05/28 10:08:22;;;;;;;;;;;;;;;27.66;41.21;99819.11;1761964;80;20359;-66
2021/05/28 10:10:50;;;;;;;;;;;;;;;27.75;40.33;99817.05;1761894;80;20142;-67
2021/05/28 10:13:21;;;;;;;;;;;;;;;27.87;40.60;99820.91;1756949;80;20181;-66
2021/05/28 10:15:49;;;;;;;;;;;;;;;27.97;40.15;99814.94;1763368;80;20150;-67
2021/05/28 10:18:16;;;;;;;;;;;;;;;28.00;39.51;99813.45;1760546;80;21077;-65
2021/05/28 10:20:46;;;;;;;;;;;;;;;28.04;39.30;99808.84;1761682;80;20169;-66
2021/05/28 10:23:13;;;;;;;;;;;;;;;28.07;37.85;99801.26;1758650;80;20201;-65
2021/05/28 10:25:40;;;;;;;;;;;;;;;28.08;38.56;99807.00;1760346;80;20249;-66
2021/05/28 10:28:09;;;;;;;;;;;;;;;28.14;37.59;99797.33;1738328;80;20559;-66
2021/05/28 10:30:40;;;;;;;;;;;;;;;28.13;36.38;99792.97;1756942;80;21803;-66
2021/05/28 10:33:19;;;;;;;;;;;;;;;28.06;36.40;99799.09;1761882;80;20208;-66
2021/05/28 10:35:47;;;;;;;;;;;;;;;27.99;36.21;99792.55;1761201;80;20183;-65
2021/05/28 10:38:41;;;;;;;;;;;;;;;27.99;35.63;99788.42;1761935;80;20151;-65
2021/05/28 10:41:14;;;;;;;;;;;;;;;28.01;36.51;99795.19;1762326;80;20156;-66
2021/05/28 10:43:54;;;;;;;;;;;;;;;28.04;35.36;99791.73;1762700;80;20558;-66
2021/05/28 10:46:21;;;;;;;;;;;;;;;27.96;34.79;99784.41;1763018;80;20161;-66
2021/05/28 10:48:51;;;;;;;;;;;;;;;27.82;35.85;99786.75;1761820;80;20623;-66
2021/05/28 10:51:23;;;;;;;;;;;;;;;27.76;35.76;99797.98;1739547;80;20186;-64
2021/05/28 10:53:54;;;;;;;;;;;;;;;27.73;35.87;99790.42;1758822;80;20166;-67
2021/05/28 10:56:23;;;;;;;;;;;;;;;27.74;35.54;99793.41;1760944;80;21102;-67
2021/05/28 10:59:11;;;;;;;;;;;;;;;27.72;35.68;99796.28;1758397;80;20169;-68
2021/05/28 11:01:48;;;;;;;;;;;;;;;27.65;35.39;99796.06;1763570;80;20574;-67
2021/05/28 11:04:16;;;;;;;;;;;;;;;27.52;35.79;99782.92;1759190;80;20190;-66
2021/05/28 11:07:00;;;;;;;;;;;;;;;27.47;35.28;99772.92;1762174;80;20189;-67
2021/05/28 11:09:48;;;;;;;;;;;;;;;27.34;34.91;99779.05;1759055;80;21103;-66
2021/05/28 11:12:17;;;;;;;;;;;;;;;27.07;35.44;99771.67;1761921;80;20261;-66
2021/05/28 11:14:58;;;;;;;;;;;;;;;26.89;35.59;99768.93;1763319;80;20150;-67
2021/05/28 11:17:25;;;;;;;;;;;;;;;26.74;35.91;99771.20;1746257;80;20161;-65
2021/05/28 11:19:56;;;;;;;;;;;;;;;26.65;37.09;99764.98;1759645;80;20514;-67
2021/05/28 11:22:34;;;;;;;;;;;;;;;26.63;37.48;99765.09;1763153;80;21737;-66
2021/05/28 11:25:09;;;;;;;;;;;;;;;26.58;37.69;99762.78;1760498;80;20520;-68
2021/05/28 11:27:40;;;;;;;;;;;;;;;26.52;37.73;99769.64;1737314;80;20199;-67
2021/05/28 11:30:10;;;;;;;;;;;;;;;26.44;37.45;99766.41;1750919;80;20207;-64
2021/05/28 11:32:46;;;;;;;;;;;;;;;26.31;38.20;99768.89;1762987;80;20168;-67
2021/05/28 11:35:18;;;;;;;;;;;;;;;26.19;37.95;99773.22;1762107;80;21849;-67
2021/05/28 11:37:51;;;;;;;;;;;;;;;26.08;37.70;99776.14;1761380;80;20199;-66
2021/05/28 11:40:23;;;;;;;;;;;;;;;26.00;38.08;99777.02;1760232;80;20175;-67
2021/05/28 11:42:52;;;;;;;;;;;;;;;25.93;38.28;99772.59;1757729;80;20174;-66
2021/05/28 11:45:20;;;;;;;;;;;;;;;25.87;38.71;99765.16;1760422;80;20145;-66
2021/05/28 11:47:47;;;;;;;;;;;;;;;25.79;38.74;99757.21;1761624;80;21072;-66
2021/05/28 11:50:16;;;;;;;;;;;;;;;25.71;38.83;99768.50;1761543;80;20163;-64
2021/05/28 11:53:02;;;;;;;;;;;;;;;25.59;43.35;99759.38;1760611;80;20194;-65
2021/05/28 11:55:31;;;;;;;;;;;;;;;25.35;45.26;99760.84;1760404;80;20279;-65
2021/05/28 11:58:00;;;;;;;;;;;;;;;25.09;46.70;99759.03;1759778;80;20254;-65
2021/05/28 12:00:27;;;;;;;;;;;;;;;24.90;47.44;99755.33;1760479;80;21633;-65
2021/05/28 12:02:58;;;;;;;;;;;;;;;24.75;47.94;99744.90;1757956;80;20142;-65
2021/05/28 12:05:40;;;;;;;;;;;;;;;24.61;48.97;99739.64;1760278;80;20153;-67
2021/05/28 12:08:15;;;;;;;;;;;;;;;24.49;49.37;99732.08;1759616;80;20150;-66
2021/05/28 12:10:52;;;;;;;;;;;;;;;24.36;50.23;99733.09;1763038;80;20141;-65
2021/05/28 12:13:21;;;;;;;;;;;;;;;24.21;51.11;99732.47;1764714;80;21166;-65
2021/05/28 12:15:53;;;;;;;;;;;;;;;24.14;51.73;99727.50;1759536;80;20555;-65
2021/05/28 12:18:30;;;;;;;;;;;;;;;24.11;52.23;99732.80;1759060;80;20162;-65
2021/05/28 12:21:07;;;;;;;;;;;;;;;24.09;52.40;99726.86;1763461;80;20141;-65
2021/05/28 12:23:53;;;;;;;;;;;;;;;24.11;53.73;99733.59;1764296;80;20130;-64
2021/05/28 12:26:27;;;;;;;;;;;;;;;24.17;52.87;99732.08;1764538;80;21111;-65
2021/05/28 12:28:55;;;;;;;;;;;;;;;24.22;53.35;99730.52;1763616;80;20194;-65
2021/05/28 12:31:26;;;;;;;;;;;;;;;24.31;52.29;99726.64;1759825;80;20564;-64
2021/05/28 12:34:06;;;;;;;;;;;;;;;24.42;51.27;99727.66;1761782;80;20159;-64
2021/05/28 12:36:38;;;;;;;;;;;;;;;24.54;50.92;99714.66;1759744;80;20734;-65
2021/05/28 12:39:12;;;;;;;;;;;;;;;24.70;50.61;99709.47;1759025;80;21145;-65
2021/05/28 12:41:39;;;;;;;;;;;;;;;24.82;53.17;99705.45;1758281;80;20174;-66
2021/05/28 12:44:06;;;;;;;;;;;;;;;24.97;53.27;99711.77;1738983;80;20153;-66
2021/05/28 12:46:36;;;;;;;;;;;;;;;25.16;52.22;99709.14;1760351;80;20162;-65
2021/05/28 12:49:08;;;;;;;;;;;;;;;25.33;49.78;99701.41;1761104;80;20726;-65
2021/05/28 12:51:37;;;;;;;;;;;;;;;25.44;48.22;99701.25;1764675;80;21072;-66
2021/05/28 12:54:23;;;;;;;;;;;;;;;25.52;45.55;99683.91;1761744;80;20177;-66